sensor_id;sensor_type;location;lat;lon;timestamp;P1;durP1;ratioP1;P2;durP2;ratioP2
22983;SDS011;11658;48.908;9.140;2023-08-24T04:03:22;3.60;;;3.10;;
22983;SDS011;11658;48.908;9.140;2023-08-24T04:05:48;4.47;;;3.50;;
22983;SDS011;11658;48.908;9.140;2023-08-24T04:08:14;3.80;;;3.20;;
22983;SDS011;11658;48.908;9.140;2023-08-24T04:10:39;4.57;;;3.37;;
22983;SDS011;11658;48.908;9.140;2023-08-24T04:13:05;3.30;;;3.00;;
22983;SDS011;11658;48.908;9.140;2023-08-24T04:15:30;4.90;;;3.27;;
22983;SDS011;11658;48.908;9.140;2023-08-24T04:17:56;3.87;;;3.47;;
22983;SDS011;11658;48.908;9.140;2023-08-24T04:20:21;8.17;;;3.40;;
22983;SDS011;11658;48.908;9.140;2023-08-24T04:22:47;7.63;;;4.50;;
22983;SDS011;11658;48.908;9.140;2023-08-24T04:25:13;4.50;;;3.80;;
22983;SDS011;11658;48.908;9.140;2023-08-24T04:27:38;6.07;;;3.43;;
22983;SDS011;11658;48.908;9.140;2023-08-24T04:30:04;4.47;;;3.67;;
22983;SDS011;11658;48.908;9.140;2023-08-24T04:32:31;4.50;;;3.10;;
22983;SDS011;11658;48.908;9.140;2023-08-24T04:34:57;4.40;;;4.00;;
22983;SDS011;11658;48.908;9.140;2023-08-24T04:37:23;4.40;;;3.33;;
22983;SDS011;11658;48.908;9.140;2023-08-24T04:39:48;5.97;;;3.83;;
22983;SDS011;11658;48.908;9.140;2023-08-24T04:42:14;4.33;;;3.03;;
22983;SDS011;11658;48.908;9.140;2023-08-24T04:44:40;4.73;;;3.30;;
22983;SDS011;11658;48.908;9.140;2023-08-24T04:47:06;3.17;;;2.80;;
22983;SDS011;11658;48.908;9.140;2023-08-24T04:49:32;2.90;;;2.70;;
22983;SDS011;11658;48.908;9.140;2023-08-24T04:51:57;3.13;;;2.83;;
22983;SDS011;11658;48.908;9.140;2023-08-24T04:54:23;4.00;;;3.30;;
22983;SDS011;11658;48.908;9.140;2023-08-24T04:56:49;3.10;;;2.80;;
22983;SDS011;11658;48.908;9.140;2023-08-24T04:59:14;5.67;;;2.80;;
22983;SDS011;11658;48.908;9.140;2023-08-24T05:01:40;2.73;;;2.40;;
22983;SDS011;11658;48.908;9.140;2023-08-24T05:04:05;2.77;;;2.57;;
22983;SDS011;11658;48.908;9.140;2023-08-24T05:06:31;7.57;;;2.97;;
22983;SDS011;11658;48.908;9.140;2023-08-24T05:08:56;2.67;;;2.47;;
22983;SDS011;11658;48.908;9.140;2023-08-24T05:11:23;2.90;;;2.60;;
22983;SDS011;11658;48.908;9.140;2023-08-24T05:13:49;6.57;;;2.60;;
22983;SDS011;11658;48.908;9.140;2023-08-24T05:16:15;3.10;;;2.70;;
22983;SDS011;11658;48.908;9.140;2023-08-24T05:18:41;6.70;;;2.80;;
22983;SDS011;11658;48.908;9.140;2023-08-24T05:21:06;5.60;;;2.80;;
22983;SDS011;11658;48.908;9.140;2023-08-24T05:23:32;3.03;;;2.73;;
22983;SDS011;11658;48.908;9.140;2023-08-24T05:25:59;3.03;;;2.57;;
22983;SDS011;11658;48.908;9.140;2023-08-24T05:28:26;3.83;;;2.90;;
22983;SDS011;11658;48.908;9.140;2023-08-24T05:30:52;2.50;;;2.30;;
22983;SDS011;11658;48.908;9.140;2023-08-24T05:33:22;2.43;;;2.20;;
22983;SDS011;11658;48.908;9.140;2023-08-24T05:35:49;3.70;;;2.50;;
22983;SDS011;11658;48.908;9.140;2023-08-24T05:38:15;3.17;;;2.63;;
22983;SDS011;11658;48.908;9.140;2023-08-24T05:40:48;9.17;;;3.23;;
22983;SDS011;11658;48.908;9.140;2023-08-24T05:43:14;3.83;;;2.65;;
22983;SDS011;11658;48.908;9.140;2023-08-24T05:45:40;4.90;;;3.43;;
22983;SDS011;11658;48.908;9.140;2023-08-24T05:48:08;3.00;;;2.30;;
22983;SDS011;11658;48.908;9.140;2023-08-24T05:50:34;3.53;;;2.67;;
22983;SDS011;11658;48.908;9.140;2023-08-24T05:52:59;2.72;;;2.42;;
22983;SDS011;11658;48.908;9.140;2023-08-24T05:55:25;3.95;;;2.95;;
22983;SDS011;11658;48.908;9.140;2023-08-24T05:57:51;5.03;;;2.42;;
22983;SDS011;11658;48.908;9.140;2023-08-24T06:00:16;2.75;;;2.28;;
22983;SDS011;11658;48.908;9.140;2023-08-24T06:02:42;3.67;;;2.53;;
22983;SDS011;11658;48.908;9.140;2023-08-24T06:05:08;2.55;;;2.33;;
22983;SDS011;11658;48.908;9.140;2023-08-24T06:07:34;3.03;;;2.35;;
22983;SDS011;11658;48.908;9.140;2023-08-24T06:10:01;3.25;;;2.40;;
22983;SDS011;11658;48.908;9.140;2023-08-24T06:12:26;4.40;;;2.80;;
22983;SDS011;11658;48.908;9.140;2023-08-24T06:14:52;3.78;;;2.70;;
22983;SDS011;11658;48.908;9.140;2023-08-24T06:17:17;2.30;;;2.05;;
22983;SDS011;11658;48.908;9.140;2023-08-24T06:19:43;3.42;;;2.60;;
22983;SDS011;11658;48.908;9.140;2023-08-24T06:22:09;3.97;;;2.25;;
22983;SDS011;11658;48.908;9.140;2023-08-24T06:24:34;3.00;;;2.47;;
22983;SDS011;11658;48.908;9.140;2023-08-24T06:27:00;3.05;;;2.70;;
22983;SDS011;11658;48.908;9.140;2023-08-24T06:29:27;2.75;;;2.47;;
22983;SDS011;11658;48.908;9.140;2023-08-24T06:31:55;2.78;;;2.28;;
22983;SDS011;11658;48.908;9.140;2023-08-24T06:34:21;2.45;;;2.25;;
22983;SDS011;11658;48.908;9.140;2023-08-24T06:36:47;2.67;;;2.47;;
22983;SDS011;11658;48.908;9.140;2023-08-24T06:39:13;2.92;;;2.40;;
22983;SDS011;11658;48.908;9.140;2023-08-24T06:41:38;4.38;;;2.90;;
22983;SDS011;11658;48.908;9.140;2023-08-24T06:44:04;4.93;;;3.17;;
22983;SDS011;11658;48.908;9.140;2023-08-24T06:46:30;4.88;;;3.35;;
22983;SDS011;11658;48.908;9.140;2023-08-24T06:48:56;4.73;;;3.70;;
22983;SDS011;11658;48.908;9.140;2023-08-24T06:51:22;3.53;;;3.00;;
22983;SDS011;11658;48.908;9.140;2023-08-24T06:53:47;4.60;;;3.00;;
22983;SDS011;11658;48.908;9.140;2023-08-24T06:56:13;4.83;;;3.87;;
22983;SDS011;11658;48.908;9.140;2023-08-24T06:58:45;4.87;;;4.20;;
22983;SDS011;11658;48.908;9.140;2023-08-24T07:01:12;4.50;;;3.10;;
22983;SDS011;11658;48.908;9.140;2023-08-24T07:03:38;5.27;;;3.30;;
22983;SDS011;11658;48.908;9.140;2023-08-24T07:06:07;7.13;;;3.13;;
22983;SDS011;11658;48.908;9.140;2023-08-24T07:08:33;4.20;;;3.38;;
22983;SDS011;11658;48.908;9.140;2023-08-24T07:10:59;7.43;;;3.20;;
22983;SDS011;11658;48.908;9.140;2023-08-24T07:13:28;8.52;;;3.17;;
22983;SDS011;11658;48.908;9.140;2023-08-24T07:15:53;5.97;;;2.88;;
22983;SDS011;11658;48.908;9.140;2023-08-24T07:18:20;3.92;;;2.55;;
22983;SDS011;11658;48.908;9.140;2023-08-24T07:20:46;3.08;;;2.70;;
22983;SDS011;11658;48.908;9.140;2023-08-24T07:23:11;2.97;;;2.63;;
22983;SDS011;11658;48.908;9.140;2023-08-24T07:25:37;2.88;;;2.58;;
22983;SDS011;11658;48.908;9.140;2023-08-24T07:28:02;7.93;;;2.65;;
22983;SDS011;11658;48.908;9.140;2023-08-24T07:30:29;3.17;;;2.45;;
22983;SDS011;11658;48.908;9.140;2023-08-24T07:32:55;3.72;;;2.50;;
22983;SDS011;11658;48.908;9.140;2023-08-24T07:35:21;3.20;;;2.70;;
22983;SDS011;11658;48.908;9.140;2023-08-24T07:37:50;3.33;;;2.53;;
22983;SDS011;11658;48.908;9.140;2023-08-24T07:40:16;4.75;;;2.40;;
22983;SDS011;11658;48.908;9.140;2023-08-24T07:42:45;2.35;;;2.15;;
22983;SDS011;11658;48.908;9.140;2023-08-24T07:45:12;2.90;;;2.20;;
22983;SDS011;11658;48.908;9.140;2023-08-24T07:47:39;3.20;;;2.30;;
22983;SDS011;11658;48.908;9.140;2023-08-24T07:50:04;2.40;;;2.20;;
22983;SDS011;11658;48.908;9.140;2023-08-24T07:52:32;3.88;;;2.85;;
22983;SDS011;11658;48.908;9.140;2023-08-24T07:54:57;2.95;;;2.40;;
22983;SDS011;11658;48.908;9.140;2023-08-24T07:57:25;2.80;;;2.40;;
22983;SDS011;11658;48.908;9.140;2023-08-24T07:59:53;5.22;;;3.03;;
22983;SDS011;11658;48.908;9.140;2023-08-24T08:02:19;2.53;;;2.30;;
22983;SDS011;11658;48.908;9.140;2023-08-24T08:04:45;5.68;;;2.28;;
22983;SDS011;11658;48.908;9.140;2023-08-24T08:07:11;3.05;;;2.50;;
22983;SDS011;11658;48.908;9.140;2023-08-24T08:09:37;4.75;;;3.08;;
22983;SDS011;11658;48.908;9.140;2023-08-24T08:12:02;2.35;;;2.13;;
22983;SDS011;11658;48.908;9.140;2023-08-24T08:14:29;5.13;;;1.88;;
22983;SDS011;11658;48.908;9.140;2023-08-24T08:16:54;2.33;;;2.00;;
22983;SDS011;11658;48.908;9.140;2023-08-24T08:19:21;3.08;;;2.28;;
22983;SDS011;11658;48.908;9.140;2023-08-24T08:21:47;2.10;;;1.90;;
22983;SDS011;11658;48.908;9.140;2023-08-24T08:24:12;4.57;;;2.08;;
22983;SDS011;11658;48.908;9.140;2023-08-24T08:26:38;2.30;;;1.95;;
22983;SDS011;11658;48.908;9.140;2023-08-24T08:29:04;2.95;;;1.98;;
22983;SDS011;11658;48.908;9.140;2023-08-24T08:31:30;1.88;;;1.75;;
22983;SDS011;11658;48.908;9.140;2023-08-24T08:33:56;3.22;;;2.35;;
22983;SDS011;11658;48.908;9.140;2023-08-24T08:36:21;2.10;;;1.90;;
22983;SDS011;11658;48.908;9.140;2023-08-24T08:38:47;2.30;;;2.10;;
22983;SDS011;11658;48.908;9.140;2023-08-24T08:41:14;1.80;;;1.70;;
22983;SDS011;11658;48.908;9.140;2023-08-24T08:43:42;2.42;;;2.05;;
22983;SDS011;11658;48.908;9.140;2023-08-24T08:46:07;2.85;;;2.10;;
22983;SDS011;11658;48.908;9.140;2023-08-24T08:48:36;1.95;;;1.75;;
22983;SDS011;11658;48.908;9.140;2023-08-24T08:51:06;2.40;;;2.20;;
22983;SDS011;11658;48.908;9.140;2023-08-24T08:53:32;1.63;;;1.52;;
22983;SDS011;11658;48.908;9.140;2023-08-24T08:55:57;2.92;;;2.08;;
22983;SDS011;11658;48.908;9.140;2023-08-24T08:58:28;2.13;;;1.92;;
22983;SDS011;11658;48.908;9.140;2023-08-24T09:00:54;2.05;;;1.85;;
22983;SDS011;11658;48.908;9.140;2023-08-24T09:03:20;2.67;;;1.73;;
22983;SDS011;11658;48.908;9.140;2023-08-24T09:05:46;3.03;;;2.17;;
22983;SDS011;11658;48.908;9.140;2023-08-24T09:08:17;2.10;;;1.90;;
22983;SDS011;11658;48.908;9.140;2023-08-24T09:10:43;1.80;;;1.70;;
22983;SDS011;11658;48.908;9.140;2023-08-24T09:13:10;1.98;;;1.77;;
22983;SDS011;11658;48.908;9.140;2023-08-24T09:15:35;2.38;;;2.05;;
22983;SDS011;11658;48.908;9.140;2023-08-24T09:18:04;2.05;;;1.85;;
22983;SDS011;11658;48.908;9.140;2023-08-24T09:20:30;1.98;;;1.70;;
22983;SDS011;11658;48.908;9.140;2023-08-24T09:22:56;2.30;;;1.75;;
22983;SDS011;11658;48.908;9.140;2023-08-24T09:25:22;1.85;;;1.70;;
22983;SDS011;11658;48.908;9.140;2023-08-24T09:28:00;2.45;;;2.00;;
22983;SDS011;11658;48.908;9.140;2023-08-24T09:30:30;3.05;;;2.33;;
22983;SDS011;11658;48.908;9.140;2023-08-24T09:33:00;2.03;;;1.83;;
22983;SDS011;11658;48.908;9.140;2023-08-24T09:35:36;2.78;;;1.70;;
22983;SDS011;11658;48.908;9.140;2023-08-24T09:40:46;2.92;;;1.83;;
22983;SDS011;11658;48.908;9.140;2023-08-24T09:43:16;3.25;;;2.33;;
22983;SDS011;11658;48.908;9.140;2023-08-24T09:45:55;2.20;;;1.92;;
22983;SDS011;11658;48.908;9.140;2023-08-24T09:48:21;3.25;;;1.95;;
22983;SDS011;11658;48.908;9.140;2023-08-24T09:50:49;7.47;;;1.92;;
22983;SDS011;11658;48.908;9.140;2023-08-24T09:53:24;3.15;;;2.47;;
22983;SDS011;11658;48.908;9.140;2023-08-24T09:55:56;2.70;;;2.35;;
22983;SDS011;11658;48.908;9.140;2023-08-24T09:58:25;2.28;;;2.08;;
22983;SDS011;11658;48.908;9.140;2023-08-24T10:00:51;2.10;;;1.90;;
22983;SDS011;11658;48.908;9.140;2023-08-24T10:03:18;2.80;;;2.10;;
22983;SDS011;11658;48.908;9.140;2023-08-24T10:05:55;2.50;;;2.30;;
22983;SDS011;11658;48.908;9.140;2023-08-24T10:08:46;2.25;;;2.00;;
22983;SDS011;11658;48.908;9.140;2023-08-24T10:11:16;4.68;;;2.20;;
22983;SDS011;11658;48.908;9.140;2023-08-24T10:13:50;1.95;;;1.70;;
22983;SDS011;11658;48.908;9.140;2023-08-24T10:16:23;2.78;;;1.83;;
22983;SDS011;11658;48.908;9.140;2023-08-24T10:18:52;2.28;;;1.92;;
22983;SDS011;11658;48.908;9.140;2023-08-24T10:21:18;2.28;;;1.65;;
22983;SDS011;11658;48.908;9.140;2023-08-24T10:23:45;2.72;;;1.92;;
22983;SDS011;11658;48.908;9.140;2023-08-24T10:26:11;2.30;;;2.10;;
22983;SDS011;11658;48.908;9.140;2023-08-24T10:28:38;2.80;;;1.90;;
22983;SDS011;11658;48.908;9.140;2023-08-24T10:31:04;2.15;;;1.95;;
22983;SDS011;11658;48.908;9.140;2023-08-24T10:33:31;3.97;;;1.95;;
22983;SDS011;11658;48.908;9.140;2023-08-24T10:35:59;2.22;;;2.03;;
22983;SDS011;11658;48.908;9.140;2023-08-24T10:38:28;3.25;;;2.67;;
22983;SDS011;11658;48.908;9.140;2023-08-24T10:40:55;3.70;;;1.83;;
22983;SDS011;11658;48.908;9.140;2023-08-24T10:43:29;4.70;;;1.90;;
22983;SDS011;11658;48.908;9.140;2023-08-24T10:46:01;2.67;;;2.20;;
22983;SDS011;11658;48.908;9.140;2023-08-24T10:48:29;4.65;;;2.22;;
22983;SDS011;11658;48.908;9.140;2023-08-24T10:56:21;2.55;;;1.80;;
22983;SDS011;11658;48.908;9.140;2023-08-24T10:59:09;2.17;;;1.98;;
22983;SDS011;11658;48.908;9.140;2023-08-24T11:01:38;2.75;;;2.05;;
22983;SDS011;11658;48.908;9.140;2023-08-24T11:04:05;2.83;;;2.20;;
22983;SDS011;11658;48.908;9.140;2023-08-24T11:06:33;6.55;;;2.17;;
22983;SDS011;11658;48.908;9.140;2023-08-24T11:09:05;2.40;;;2.20;;
22983;SDS011;11658;48.908;9.140;2023-08-24T11:11:38;2.13;;;1.90;;
22983;SDS011;11658;48.908;9.140;2023-08-24T11:14:14;2.47;;;1.90;;
22983;SDS011;11658;48.908;9.140;2023-08-24T11:16:56;4.22;;;2.25;;
22983;SDS011;11658;48.908;9.140;2023-08-24T11:19:24;1.85;;;1.73;;
22983;SDS011;11658;48.908;9.140;2023-08-24T11:21:50;2.70;;;2.50;;
22983;SDS011;11658;48.908;9.140;2023-08-24T11:24:16;2.15;;;1.95;;
22983;SDS011;11658;48.908;9.140;2023-08-24T11:26:46;2.38;;;2.17;;
22983;SDS011;11658;48.908;9.140;2023-08-24T11:29:13;2.38;;;2.10;;
22983;SDS011;11658;48.908;9.140;2023-08-24T11:31:40;2.00;;;1.80;;
22983;SDS011;11658;48.908;9.140;2023-08-24T11:34:06;2.58;;;2.38;;
22983;SDS011;11658;48.908;9.140;2023-08-24T11:39:28;4.68;;;2.28;;
22983;SDS011;11658;48.908;9.140;2023-08-24T11:44:44;2.08;;;1.90;;
22983;SDS011;11658;48.908;9.140;2023-08-24T11:47:13;2.10;;;1.90;;
22983;SDS011;11658;48.908;9.140;2023-08-24T11:49:40;2.25;;;1.98;;
22983;SDS011;11658;48.908;9.140;2023-08-24T11:52:06;2.08;;;1.60;;
22983;SDS011;11658;48.908;9.140;2023-08-24T11:54:33;2.65;;;1.90;;
22983;SDS011;11658;48.908;9.140;2023-08-24T11:56:58;3.90;;;2.00;;
22983;SDS011;11658;48.908;9.140;2023-08-24T11:59:24;2.08;;;1.90;;
22983;SDS011;11658;48.908;9.140;2023-08-24T12:01:51;2.40;;;2.20;;
22983;SDS011;11658;48.908;9.140;2023-08-24T12:04:18;4.43;;;2.45;;
22983;SDS011;11658;48.908;9.140;2023-08-24T12:06:43;4.78;;;2.47;;
22983;SDS011;11658;48.908;9.140;2023-08-24T12:09:09;2.17;;;1.98;;
22983;SDS011;11658;48.908;9.140;2023-08-24T12:11:36;2.45;;;2.17;;
22983;SDS011;11658;48.908;9.140;2023-08-24T12:14:03;2.42;;;2.15;;
22983;SDS011;11658;48.908;9.140;2023-08-24T12:16:31;2.40;;;2.03;;
22983;SDS011;11658;48.908;9.140;2023-08-24T12:18:58;4.32;;;2.30;;
22983;SDS011;11658;48.908;9.140;2023-08-24T12:21:25;2.80;;;2.42;;
22983;SDS011;11658;48.908;9.140;2023-08-24T12:23:58;3.22;;;2.25;;
22983;SDS011;11658;48.908;9.140;2023-08-24T12:26:26;4.90;;;2.45;;
22983;SDS011;11658;48.908;9.140;2023-08-24T12:28:53;2.88;;;2.50;;
22983;SDS011;11658;48.908;9.140;2023-08-24T12:31:20;2.65;;;2.13;;
22983;SDS011;11658;48.908;9.140;2023-08-24T12:34:00;4.70;;;3.00;;
22983;SDS011;11658;48.908;9.140;2023-08-24T12:36:28;2.47;;;2.28;;
22983;SDS011;11658;48.908;9.140;2023-08-24T12:38:54;2.45;;;2.20;;
22983;SDS011;11658;48.908;9.140;2023-08-24T12:41:19;2.22;;;2.03;;
22983;SDS011;11658;48.908;9.140;2023-08-24T12:43:45;2.95;;;2.20;;
22983;SDS011;11658;48.908;9.140;2023-08-24T12:46:11;3.00;;;2.22;;
22983;SDS011;11658;48.908;9.140;2023-08-24T12:48:36;2.13;;;1.90;;
22983;SDS011;11658;48.908;9.140;2023-08-24T12:51:02;2.65;;;2.42;;
22983;SDS011;11658;48.908;9.140;2023-08-24T12:53:27;8.18;;;2.53;;
22983;SDS011;11658;48.908;9.140;2023-08-24T12:55:53;2.35;;;2.08;;
22983;SDS011;11658;48.908;9.140;2023-08-24T12:58:18;2.28;;;2.10;;
22983;SDS011;11658;48.908;9.140;2023-08-24T13:00:45;3.72;;;2.90;;
22983;SDS011;11658;48.908;9.140;2023-08-24T13:03:10;3.15;;;2.15;;
22983;SDS011;11658;48.908;9.140;2023-08-24T13:05:36;2.80;;;2.50;;
22983;SDS011;11658;48.908;9.140;2023-08-24T13:08:02;2.25;;;2.05;;
22983;SDS011;11658;48.908;9.140;2023-08-24T13:10:29;4.75;;;2.63;;
22983;SDS011;11658;48.908;9.140;2023-08-24T13:12:54;3.90;;;2.45;;
22983;SDS011;11658;48.908;9.140;2023-08-24T13:15:21;3.15;;;2.30;;
22983;SDS011;11658;48.908;9.140;2023-08-24T13:17:47;3.38;;;2.78;;
22983;SDS011;11658;48.908;9.140;2023-08-24T13:20:12;3.15;;;2.35;;
22983;SDS011;11658;48.908;9.140;2023-08-24T13:22:38;3.30;;;2.42;;
22983;SDS011;11658;48.908;9.140;2023-08-24T13:25:03;2.30;;;2.10;;
22983;SDS011;11658;48.908;9.140;2023-08-24T13:27:29;2.38;;;2.10;;
22983;SDS011;11658;48.908;9.140;2023-08-24T13:29:56;4.35;;;2.65;;
22983;SDS011;11658;48.908;9.140;2023-08-24T13:32:24;2.78;;;2.00;;
22983;SDS011;11658;48.908;9.140;2023-08-24T13:34:50;4.93;;;2.28;;
22983;SDS011;11658;48.908;9.140;2023-08-24T13:37:16;2.10;;;1.83;;
22983;SDS011;11658;48.908;9.140;2023-08-24T13:39:45;2.60;;;2.25;;
22983;SDS011;11658;48.908;9.140;2023-08-24T13:42:11;3.80;;;2.20;;
22983;SDS011;11658;48.908;9.140;2023-08-24T13:44:38;5.00;;;2.80;;
22983;SDS011;11658;48.908;9.140;2023-08-24T13:47:04;2.40;;;2.10;;
22983;SDS011;11658;48.908;9.140;2023-08-24T13:49:29;3.55;;;2.40;;
22983;SDS011;11658;48.908;9.140;2023-08-24T13:51:55;3.10;;;2.75;;
22983;SDS011;11658;48.908;9.140;2023-08-24T13:54:20;3.08;;;2.03;;
22983;SDS011;11658;48.908;9.140;2023-08-24T13:56:47;2.78;;;2.47;;
22983;SDS011;11658;48.908;9.140;2023-08-24T13:59:13;4.50;;;2.70;;
22983;SDS011;11658;48.908;9.140;2023-08-24T14:01:40;3.15;;;1.85;;
22983;SDS011;11658;48.908;9.140;2023-08-24T14:04:06;3.20;;;2.45;;
22983;SDS011;11658;48.908;9.140;2023-08-24T14:06:32;3.65;;;2.10;;
22983;SDS011;11658;48.908;9.140;2023-08-24T14:09:00;2.97;;;2.08;;
22983;SDS011;11658;48.908;9.140;2023-08-24T14:11:26;4.53;;;2.20;;
22983;SDS011;11658;48.908;9.140;2023-08-24T14:13:52;3.72;;;2.30;;
22983;SDS011;11658;48.908;9.140;2023-08-24T14:16:18;3.75;;;2.08;;
22983;SDS011;11658;48.908;9.140;2023-08-24T14:18:47;3.17;;;2.10;;
22983;SDS011;11658;48.908;9.140;2023-08-24T14:21:13;2.70;;;1.90;;
22983;SDS011;11658;48.908;9.140;2023-08-24T14:23:39;3.35;;;2.28;;
22983;SDS011;11658;48.908;9.140;2023-08-24T14:26:05;2.33;;;2.00;;
22983;SDS011;11658;48.908;9.140;2023-08-24T14:31:18;6.10;;;2.17;;
22983;SDS011;11658;48.908;9.140;2023-08-24T14:33:44;2.35;;;1.85;;
22983;SDS011;11658;48.908;9.140;2023-08-24T14:36:10;3.28;;;1.92;;
22983;SDS011;11658;48.908;9.140;2023-08-24T14:38:39;3.70;;;1.98;;
22983;SDS011;11658;48.908;9.140;2023-08-24T14:41:05;4.13;;;2.03;;
22983;SDS011;11658;48.908;9.140;2023-08-24T14:43:32;2.65;;;2.28;;
22983;SDS011;11658;48.908;9.140;2023-08-24T14:45:58;6.30;;;2.20;;
22983;SDS011;11658;48.908;9.140;2023-08-24T14:48:23;2.47;;;2.28;;
22983;SDS011;11658;48.908;9.140;2023-08-24T14:50:49;2.20;;;1.88;;
22983;SDS011;11658;48.908;9.140;2023-08-24T14:53:14;2.33;;;1.77;;
22983;SDS011;11658;48.908;9.140;2023-08-24T14:55:40;2.33;;;2.13;;
22983;SDS011;11658;48.908;9.140;2023-08-24T14:58:06;7.22;;;2.65;;
22983;SDS011;11658;48.908;9.140;2023-08-24T15:00:32;4.90;;;2.50;;
22983;SDS011;11658;48.908;9.140;2023-08-24T15:02:58;3.13;;;1.70;;
22983;SDS011;11658;48.908;9.140;2023-08-24T15:05:24;5.55;;;3.38;;
22983;SDS011;11658;48.908;9.140;2023-08-24T15:07:50;2.20;;;2.00;;
22983;SDS011;11658;48.908;9.140;2023-08-24T15:10:16;3.28;;;2.47;;
22983;SDS011;11658;48.908;9.140;2023-08-24T15:12:42;6.15;;;3.30;;
22983;SDS011;11658;48.908;9.140;2023-08-24T15:15:09;4.28;;;3.03;;
22983;SDS011;11658;48.908;9.140;2023-08-24T15:17:35;3.95;;;2.10;;
22983;SDS011;11658;48.908;9.140;2023-08-24T15:20:01;6.80;;;2.05;;
22983;SDS011;11658;48.908;9.140;2023-08-24T15:22:31;1.53;;;1.27;;
22983;SDS011;11658;48.908;9.140;2023-08-24T15:24:58;2.83;;;1.60;;
22983;SDS011;11658;48.908;9.140;2023-08-24T15:27:24;1.87;;;1.27;;
22983;SDS011;11658;48.908;9.140;2023-08-24T15:29:50;3.37;;;1.57;;
22983;SDS011;11658;48.908;9.140;2023-08-24T15:32:19;1.57;;;1.20;;
22983;SDS011;11658;48.908;9.140;2023-08-24T15:34:44;1.20;;;1.10;;
22983;SDS011;11658;48.908;9.140;2023-08-24T15:37:10;1.17;;;1.07;;
22983;SDS011;11658;48.908;9.140;2023-08-24T15:39:36;0.87;;;0.83;;
22983;SDS011;11658;48.908;9.140;2023-08-24T15:42:03;0.97;;;0.97;;
22983;SDS011;11658;48.908;9.140;2023-08-24T15:44:29;0.87;;;0.87;;
22983;SDS011;11658;48.908;9.140;2023-08-24T15:46:55;1.10;;;1.00;;
22983;SDS011;11658;48.908;9.140;2023-08-24T15:49:21;5.33;;;1.37;;
22983;SDS011;11658;48.908;9.140;2023-08-24T15:51:50;2.53;;;1.10;;
22983;SDS011;11658;48.908;9.140;2023-08-24T15:54:17;1.73;;;1.17;;
22983;SDS011;11658;48.908;9.140;2023-08-24T15:56:43;3.57;;;1.00;;
22983;SDS011;11658;48.908;9.140;2023-08-24T15:59:13;1.33;;;0.90;;
22983;SDS011;11658;48.908;9.140;2023-08-24T16:01:42;4.07;;;1.40;;
22983;SDS011;11658;48.908;9.140;2023-08-24T16:04:08;2.40;;;1.20;;
22983;SDS011;11658;48.908;9.140;2023-08-24T16:06:33;7.00;;;1.47;;
22983;SDS011;11658;48.908;9.140;2023-08-24T16:08:59;4.20;;;1.30;;
22983;SDS011;11658;48.908;9.140;2023-08-24T16:11:25;3.23;;;1.43;;
22983;SDS011;11658;48.908;9.140;2023-08-24T16:13:50;2.20;;;1.30;;
22983;SDS011;11658;48.908;9.140;2023-08-24T16:16:18;5.73;;;2.73;;
22983;SDS011;11658;48.908;9.140;2023-08-24T16:18:43;2.73;;;1.27;;
22983;SDS011;11658;48.908;9.140;2023-08-24T16:21:09;4.50;;;2.30;;
22983;SDS011;11658;48.908;9.140;2023-08-24T16:23:35;7.03;;;2.63;;
22983;SDS011;11658;48.908;9.140;2023-08-24T16:26:00;2.87;;;2.27;;
22983;SDS011;11658;48.908;9.140;2023-08-24T16:28:26;2.83;;;1.97;;
22983;SDS011;11658;48.908;9.140;2023-08-24T16:30:51;2.80;;;2.13;;
22983;SDS011;11658;48.908;9.140;2023-08-24T16:33:17;4.07;;;3.33;;
22983;SDS011;11658;48.908;9.140;2023-08-24T16:35:44;5.90;;;2.10;;
22983;SDS011;11658;48.908;9.140;2023-08-24T16:38:10;4.00;;;2.20;;
22983;SDS011;11658;48.908;9.140;2023-08-24T16:40:35;3.83;;;2.88;;
22983;SDS011;11658;48.908;9.140;2023-08-24T16:43:01;5.35;;;2.55;;
22983;SDS011;11658;48.908;9.140;2023-08-24T16:45:27;2.83;;;2.30;;
22983;SDS011;11658;48.908;9.140;2023-08-24T16:47:52;3.28;;;2.60;;
22983;SDS011;11658;48.908;9.140;2023-08-24T16:50:18;3.55;;;2.53;;
22983;SDS011;11658;48.908;9.140;2023-08-24T16:52:45;3.05;;;2.42;;
22983;SDS011;11658;48.908;9.140;2023-08-24T16:55:11;6.32;;;2.65;;
22983;SDS011;11658;48.908;9.140;2023-08-24T16:57:36;4.50;;;2.30;;
22983;SDS011;11658;48.908;9.140;2023-08-24T17:00:02;3.83;;;3.00;;
22983;SDS011;11658;48.908;9.140;2023-08-24T17:02:29;4.63;;;2.42;;
22983;SDS011;11658;48.908;9.140;2023-08-24T17:04:54;8.32;;;3.90;;
22983;SDS011;11658;48.908;9.140;2023-08-24T17:07:20;3.35;;;1.98;;
22983;SDS011;11658;48.908;9.140;2023-08-24T17:09:48;2.10;;;1.88;;
22983;SDS011;11658;48.908;9.140;2023-08-24T17:12:14;2.42;;;2.22;;
22983;SDS011;11658;48.908;9.140;2023-08-24T17:14:39;2.30;;;2.00;;
22983;SDS011;11658;48.908;9.140;2023-08-24T17:17:05;3.63;;;2.28;;
22983;SDS011;11658;48.908;9.140;2023-08-24T17:19:31;2.08;;;1.85;;
22983;SDS011;11658;48.908;9.140;2023-08-24T17:21:56;2.55;;;2.00;;
22983;SDS011;11658;48.908;9.140;2023-08-24T17:24:22;3.60;;;2.50;;
22983;SDS011;11658;48.908;9.140;2023-08-24T17:26:48;2.47;;;1.90;;
22983;SDS011;11658;48.908;9.140;2023-08-24T17:29:15;2.08;;;1.70;;
22983;SDS011;11658;48.908;9.140;2023-08-24T17:31:40;4.80;;;2.10;;
22983;SDS011;11658;48.908;9.140;2023-08-24T17:34:06;1.60;;;1.42;;
22983;SDS011;11658;48.908;9.140;2023-08-24T17:36:32;3.88;;;1.95;;
22983;SDS011;11658;48.908;9.140;2023-08-24T17:38:58;2.10;;;1.60;;
22983;SDS011;11658;48.908;9.140;2023-08-24T17:41:24;1.77;;;1.50;;
22983;SDS011;11658;48.908;9.140;2023-08-24T17:43:49;2.83;;;1.60;;
22983;SDS011;11658;48.908;9.140;2023-08-24T17:46:15;3.20;;;1.92;;
22983;SDS011;11658;48.908;9.140;2023-08-24T17:48:40;2.43;;;1.90;;
22983;SDS011;11658;48.908;9.140;2023-08-24T17:51:06;2.22;;;1.73;;
22983;SDS011;11658;48.908;9.140;2023-08-24T17:53:32;3.33;;;2.05;;
22983;SDS011;11658;48.908;9.140;2023-08-24T17:55:59;1.83;;;1.52;;
22983;SDS011;11658;48.908;9.140;2023-08-24T17:58:25;3.03;;;2.10;;
22983;SDS011;11658;48.908;9.140;2023-08-24T18:00:51;2.10;;;1.90;;
22983;SDS011;11658;48.908;9.140;2023-08-24T18:03:19;3.08;;;2.35;;
22983;SDS011;11658;48.908;9.140;2023-08-24T18:05:44;3.53;;;2.40;;
22983;SDS011;11658;48.908;9.140;2023-08-24T18:08:11;2.20;;;2.00;;
22983;SDS011;11658;48.908;9.140;2023-08-24T18:10:37;2.70;;;2.42;;
22983;SDS011;11658;48.908;9.140;2023-08-24T18:13:02;5.30;;;2.70;;
22983;SDS011;11658;48.908;9.140;2023-08-24T18:15:34;2.28;;;2.08;;
22983;SDS011;11658;48.908;9.140;2023-08-24T18:18:02;4.10;;;2.63;;
22983;SDS011;11658;48.908;9.140;2023-08-24T18:20:29;5.35;;;2.53;;
22983;SDS011;11658;48.908;9.140;2023-08-24T18:22:55;4.10;;;2.75;;
22983;SDS011;11658;48.908;9.140;2023-08-24T18:25:22;3.45;;;3.15;;
22983;SDS011;11658;48.908;9.140;2023-08-24T18:27:48;3.80;;;3.38;;
22983;SDS011;11658;48.908;9.140;2023-08-24T18:30:15;4.45;;;2.92;;
22983;SDS011;11658;48.908;9.140;2023-08-24T18:32:40;7.60;;;3.10;;
22983;SDS011;11658;48.908;9.140;2023-08-24T18:35:06;3.45;;;2.97;;
22983;SDS011;11658;48.908;9.140;2023-08-24T18:37:32;3.58;;;3.10;;
22983;SDS011;11658;48.908;9.140;2023-08-24T18:39:58;3.55;;;3.05;;
22983;SDS011;11658;48.908;9.140;2023-08-24T18:42:23;6.95;;;3.75;;
22983;SDS011;11658;48.908;9.140;2023-08-24T18:44:51;6.82;;;3.35;;
22983;SDS011;11658;48.908;9.140;2023-08-24T18:47:16;4.13;;;3.00;;
22983;SDS011;11658;48.908;9.140;2023-08-24T18:49:43;4.20;;;3.35;;
22983;SDS011;11658;48.908;9.140;2023-08-24T18:52:09;4.07;;;3.00;;
22983;SDS011;11658;48.908;9.140;2023-08-24T18:54:34;4.35;;;3.22;;
22983;SDS011;11658;48.908;9.140;2023-08-24T18:57:00;5.28;;;2.90;;
22983;SDS011;11658;48.908;9.140;2023-08-24T18:59:25;3.78;;;3.30;;
22983;SDS011;11658;48.908;9.140;2023-08-24T19:01:51;3.30;;;2.83;;
22983;SDS011;11658;48.908;9.140;2023-08-24T19:04:17;5.13;;;3.22;;